sensor_id;sensor_type;location;lat;lon;timestamp;P1;durP1;ratioP1;P2;durP2;ratioP2
6019;SDS011;3038;51.122;6.840;2023-08-20T00:01:56;16.70;;;15.30;;
6019;SDS011;3038;51.122;6.840;2023-08-20T00:04:23;15.67;;;14.37;;
6019;SDS011;3038;51.122;6.840;2023-08-20T00:06:53;16.17;;;14.70;;
6019;SDS011;3038;51.122;6.840;2023-08-20T00:09:19;16.13;;;14.83;;
6019;SDS011;3038;51.122;6.840;2023-08-20T00:11:44;16.27;;;14.83;;
6019;SDS011;3038;51.122;6.840;2023-08-20T00:14:16;16.10;;;14.50;;
6019;SDS011;3038;51.122;6.840;2023-08-20T00:16:42;17.47;;;16.00;;
6019;SDS011;3038;51.122;6.840;2023-08-20T00:19:15;17.90;;;16.23;;
6019;SDS011;3038;51.122;6.840;2023-08-20T00:21:41;16.27;;;14.97;;
6019;SDS011;3038;51.122;6.840;2023-08-20T00:24:08;15.57;;;14.03;;
6019;SDS011;3038;51.122;6.840;2023-08-20T00:26:33;16.10;;;14.70;;
6019;SDS011;3038;51.122;6.840;2023-08-20T00:28:59;16.87;;;15.43;;
6019;SDS011;3038;51.122;6.840;2023-08-20T00:31:24;16.47;;;14.83;;
6019;SDS011;3038;51.122;6.840;2023-08-20T00:33:50;15.80;;;14.50;;
6019;SDS011;3038;51.122;6.840;2023-08-20T00:36:15;16.30;;;14.90;;
6019;SDS011;3038;51.122;6.840;2023-08-20T00:38:40;16.27;;;14.80;;
6019;SDS011;3038;51.122;6.840;2023-08-20T00:41:13;16.77;;;15.00;;
6019;SDS011;3038;51.122;6.840;2023-08-20T00:43:38;17.10;;;15.57;;
6019;SDS011;3038;51.122;6.840;2023-08-20T00:46:04;16.37;;;14.93;;
6019;SDS011;3038;51.122;6.840;2023-08-20T00:48:29;17.80;;;16.33;;
6019;SDS011;3038;51.122;6.840;2023-08-20T00:50:55;16.40;;;15.00;;
6019;SDS011;3038;51.122;6.840;2023-08-20T00:53:22;16.87;;;15.17;;
6019;SDS011;3038;51.122;6.840;2023-08-20T00:55:48;16.73;;;15.03;;
6019;SDS011;3038;51.122;6.840;2023-08-20T00:58:13;16.27;;;14.67;;
6019;SDS011;3038;51.122;6.840;2023-08-20T01:00:39;18.37;;;16.67;;
6019;SDS011;3038;51.122;6.840;2023-08-20T01:03:07;15.70;;;14.40;;
6019;SDS011;3038;51.122;6.840;2023-08-20T01:05:33;16.03;;;14.63;;
6019;SDS011;3038;51.122;6.840;2023-08-20T01:08:50;18.40;;;16.60;;
6019;SDS011;3038;51.122;6.840;2023-08-20T01:11:21;17.50;;;15.77;;
6019;SDS011;3038;51.122;6.840;2023-08-20T01:13:54;18.07;;;16.37;;
6019;SDS011;3038;51.122;6.840;2023-08-20T01:16:20;17.03;;;15.40;;
6019;SDS011;3038;51.122;6.840;2023-08-20T01:18:46;18.63;;;17.03;;
6019;SDS011;3038;51.122;6.840;2023-08-20T01:22:11;17.67;;;16.17;;
6019;SDS011;3038;51.122;6.840;2023-08-20T01:26:55;17.63;;;15.80;;
6019;SDS011;3038;51.122;6.840;2023-08-20T01:29:29;17.57;;;16.00;;
6019;SDS011;3038;51.122;6.840;2023-08-20T01:31:54;16.37;;;14.70;;
6019;SDS011;3038;51.122;6.840;2023-08-20T01:34:20;17.20;;;15.80;;
6019;SDS011;3038;51.122;6.840;2023-08-20T01:36:46;18.70;;;17.10;;
6019;SDS011;3038;51.122;6.840;2023-08-20T01:39:11;18.10;;;16.30;;
6019;SDS011;3038;51.122;6.840;2023-08-20T01:41:37;19.10;;;17.30;;
6019;SDS011;3038;51.122;6.840;2023-08-20T01:44:02;16.80;;;15.10;;
6019;SDS011;3038;51.122;6.840;2023-08-20T01:46:28;18.37;;;16.57;;
6019;SDS011;3038;51.122;6.840;2023-08-20T01:48:53;19.27;;;17.37;;
6019;SDS011;3038;51.122;6.840;2023-08-20T01:51:19;19.50;;;17.60;;
6019;SDS011;3038;51.122;6.840;2023-08-20T01:53:44;21.60;;;18.47;;
6019;SDS011;3038;51.122;6.840;2023-08-20T01:56:12;18.97;;;17.27;;
6019;SDS011;3038;51.122;6.840;2023-08-20T01:58:38;21.17;;;19.20;;
6019;SDS011;3038;51.122;6.840;2023-08-20T02:01:03;18.17;;;16.37;;
6019;SDS011;3038;51.122;6.840;2023-08-20T02:03:31;24.80;;;19.30;;
6019;SDS011;3038;51.122;6.840;2023-08-20T02:05:56;22.43;;;20.00;;
6019;SDS011;3038;51.122;6.840;2023-08-20T02:08:24;23.20;;;20.80;;
6019;SDS011;3038;51.122;6.840;2023-08-20T02:10:49;22.10;;;19.90;;
6019;SDS011;3038;51.122;6.840;2023-08-20T02:13:15;23.90;;;21.30;;
6019;SDS011;3038;51.122;6.840;2023-08-20T02:15:40;21.80;;;19.50;;
6019;SDS011;3038;51.122;6.840;2023-08-20T02:18:05;20.90;;;19.00;;
6019;SDS011;3038;51.122;6.840;2023-08-20T02:20:33;20.80;;;18.90;;
6019;SDS011;3038;51.122;6.840;2023-08-20T02:22:58;20.83;;;18.70;;
6019;SDS011;3038;51.122;6.840;2023-08-20T02:25:24;20.20;;;18.10;;
6019;SDS011;3038;51.122;6.840;2023-08-20T02:27:49;18.10;;;16.20;;
6019;SDS011;3038;51.122;6.840;2023-08-20T02:30:15;18.37;;;16.57;;
6019;SDS011;3038;51.122;6.840;2023-08-20T02:32:40;19.40;;;17.43;;
6019;SDS011;3038;51.122;6.840;2023-08-20T02:35:06;18.00;;;16.20;;
6019;SDS011;3038;51.122;6.840;2023-08-20T02:37:32;16.03;;;14.73;;
6019;SDS011;3038;51.122;6.840;2023-08-20T02:39:57;16.17;;;14.77;;
6019;SDS011;3038;51.122;6.840;2023-08-20T02:42:22;16.00;;;14.50;;
6019;SDS011;3038;51.122;6.840;2023-08-20T02:44:51;15.43;;;14.10;;
6019;SDS011;3038;51.122;6.840;2023-08-20T02:47:16;16.70;;;15.00;;
6019;SDS011;3038;51.122;6.840;2023-08-20T02:49:41;18.00;;;16.30;;
6019;SDS011;3038;51.122;6.840;2023-08-20T02:52:09;17.30;;;15.50;;
6019;SDS011;3038;51.122;6.840;2023-08-20T02:54:35;19.87;;;17.97;;
6019;SDS011;3038;51.122;6.840;2023-08-20T02:57:00;19.33;;;17.60;;
6019;SDS011;3038;51.122;6.840;2023-08-20T02:59:25;19.17;;;16.97;;
6019;SDS011;3038;51.122;6.840;2023-08-20T03:01:51;20.17;;;18.17;;
6019;SDS011;3038;51.122;6.840;2023-08-20T03:04:16;19.97;;;17.13;;
6019;SDS011;3038;51.122;6.840;2023-08-20T03:06:42;26.63;;;18.90;;
6019;SDS011;3038;51.122;6.840;2023-08-20T03:09:09;19.53;;;17.50;;
6019;SDS011;3038;51.122;6.840;2023-08-20T03:11:34;19.00;;;17.10;;
6019;SDS011;3038;51.122;6.840;2023-08-20T03:14:00;19.70;;;17.80;;
6019;SDS011;3038;51.122;6.840;2023-08-20T03:16:25;19.83;;;17.97;;
6019;SDS011;3038;51.122;6.840;2023-08-20T03:18:50;21.03;;;19.00;;
6019;SDS011;3038;51.122;6.840;2023-08-20T03:21:16;22.57;;;20.07;;
6019;SDS011;3038;51.122;6.840;2023-08-20T03:23:41;22.00;;;19.77;;
6019;SDS011;3038;51.122;6.840;2023-08-20T03:26:06;24.70;;;20.70;;
6019;SDS011;3038;51.122;6.840;2023-08-20T03:28:32;19.50;;;17.50;;
6019;SDS011;3038;51.122;6.840;2023-08-20T03:31:00;21.73;;;19.57;;
6019;SDS011;3038;51.122;6.840;2023-08-20T03:33:26;22.60;;;20.37;;
6019;SDS011;3038;51.122;6.840;2023-08-20T03:35:51;23.90;;;21.10;;
6019;SDS011;3038;51.122;6.840;2023-08-20T03:38:17;24.57;;;22.17;;
6019;SDS011;3038;51.122;6.840;2023-08-20T03:40:42;24.60;;;21.90;;
6019;SDS011;3038;51.122;6.840;2023-08-20T03:43:07;23.33;;;20.90;;
6019;SDS011;3038;51.122;6.840;2023-08-20T03:45:33;33.33;;;23.63;;
6019;SDS011;3038;51.122;6.840;2023-08-20T03:47:58;24.27;;;21.67;;
6019;SDS011;3038;51.122;6.840;2023-08-20T03:50:23;25.37;;;22.67;;
6019;SDS011;3038;51.122;6.840;2023-08-20T03:52:49;25.57;;;23.07;;
6019;SDS011;3038;51.122;6.840;2023-08-20T03:55:16;23.13;;;20.97;;
6019;SDS011;3038;51.122;6.840;2023-08-20T03:57:42;26.73;;;22.30;;
6019;SDS011;3038;51.122;6.840;2023-08-20T04:00:07;25.77;;;22.07;;
6019;SDS011;3038;51.122;6.840;2023-08-20T04:02:34;22.70;;;20.37;;
6019;SDS011;3038;51.122;6.840;2023-08-20T04:04:59;23.50;;;21.07;;
6019;SDS011;3038;51.122;6.840;2023-08-20T04:07:25;22.40;;;20.00;;
6019;SDS011;3038;51.122;6.840;2023-08-20T04:09:50;23.23;;;20.93;;
6019;SDS011;3038;51.122;6.840;2023-08-20T04:12:16;23.90;;;21.50;;
6019;SDS011;3038;51.122;6.840;2023-08-20T04:14:41;23.33;;;20.83;;
6019;SDS011;3038;51.122;6.840;2023-08-20T04:17:06;23.03;;;20.70;;
6019;SDS011;3038;51.122;6.840;2023-08-20T04:19:32;22.07;;;19.97;;
6019;SDS011;3038;51.122;6.840;2023-08-20T04:21:57;24.67;;;21.07;;
6019;SDS011;3038;51.122;6.840;2023-08-20T04:24:22;25.40;;;18.60;;
6019;SDS011;3038;51.122;6.840;2023-08-20T04:26:48;21.43;;;18.97;;
6019;SDS011;3038;51.122;6.840;2023-08-20T04:29:13;24.33;;;20.33;;
6019;SDS011;3038;51.122;6.840;2023-08-20T04:31:39;21.80;;;19.53;;
6019;SDS011;3038;51.122;6.840;2023-08-20T04:34:04;21.50;;;19.30;;
6019;SDS011;3038;51.122;6.840;2023-08-20T04:36:29;21.37;;;19.07;;
6019;SDS011;3038;51.122;6.840;2023-08-20T04:38:55;23.07;;;19.23;;
6019;SDS011;3038;51.122;6.840;2023-08-20T04:41:20;21.50;;;18.50;;
6019;SDS011;3038;51.122;6.840;2023-08-20T04:43:45;21.07;;;18.87;;
6019;SDS011;3038;51.122;6.840;2023-08-20T04:46:10;21.83;;;18.30;;
6019;SDS011;3038;51.122;6.840;2023-08-20T04:48:36;20.27;;;18.03;;
6019;SDS011;3038;51.122;6.840;2023-08-20T04:51:04;20.70;;;18.57;;
6019;SDS011;3038;51.122;6.840;2023-08-20T04:53:33;20.30;;;18.20;;
6019;SDS011;3038;51.122;6.840;2023-08-20T04:55:58;21.40;;;18.57;;
6019;SDS011;3038;51.122;6.840;2023-08-20T04:58:24;20.40;;;18.40;;
6019;SDS011;3038;51.122;6.840;2023-08-20T05:00:49;19.90;;;17.80;;
6019;SDS011;3038;51.122;6.840;2023-08-20T05:03:14;21.50;;;19.30;;
6019;SDS011;3038;51.122;6.840;2023-08-20T05:05:40;22.90;;;20.00;;
6019;SDS011;3038;51.122;6.840;2023-08-20T05:08:05;22.20;;;19.80;;
6019;SDS011;3038;51.122;6.840;2023-08-20T05:10:31;19.47;;;17.50;;
6019;SDS011;3038;51.122;6.840;2023-08-20T05:12:56;19.73;;;17.73;;
6019;SDS011;3038;51.122;6.840;2023-08-20T05:15:21;20.37;;;18.27;;
6019;SDS011;3038;51.122;6.840;2023-08-20T05:17:49;21.90;;;18.47;;
6019;SDS011;3038;51.122;6.840;2023-08-20T05:20:15;19.07;;;17.17;;
6019;SDS011;3038;51.122;6.840;2023-08-20T05:22:40;21.80;;;16.97;;
6019;SDS011;3038;51.122;6.840;2023-08-20T05:25:08;20.60;;;18.53;;
6019;SDS011;3038;51.122;6.840;2023-08-20T05:27:34;19.30;;;17.30;;
6019;SDS011;3038;51.122;6.840;2023-08-20T05:30:01;20.40;;;17.30;;
6019;SDS011;3038;51.122;6.840;2023-08-20T05:32:28;18.00;;;16.20;;
6019;SDS011;3038;51.122;6.840;2023-08-20T05:34:53;19.50;;;17.70;;
6019;SDS011;3038;51.122;6.840;2023-08-20T05:37:19;19.50;;;17.60;;
6019;SDS011;3038;51.122;6.840;2023-08-20T05:39:44;20.30;;;17.80;;
6019;SDS011;3038;51.122;6.840;2023-08-20T05:42:12;20.40;;;18.50;;
6019;SDS011;3038;51.122;6.840;2023-08-20T05:44:37;20.13;;;17.90;;
6019;SDS011;3038;51.122;6.840;2023-08-20T05:47:03;19.67;;;17.50;;
6019;SDS011;3038;51.122;6.840;2023-08-20T05:49:30;18.97;;;15.90;;
6019;SDS011;3038;51.122;6.840;2023-08-20T05:51:55;19.77;;;16.70;;
6019;SDS011;3038;51.122;6.840;2023-08-20T05:54:23;20.23;;;17.03;;
6019;SDS011;3038;51.122;6.840;2023-08-20T05:56:51;18.97;;;17.10;;
6019;SDS011;3038;51.122;6.840;2023-08-20T05:59:17;18.67;;;16.67;;
6019;SDS011;3038;51.122;6.840;2023-08-20T06:01:42;19.33;;;17.30;;
6019;SDS011;3038;51.122;6.840;2023-08-20T06:04:10;21.20;;;17.90;;
6019;SDS011;3038;51.122;6.840;2023-08-20T06:06:36;19.47;;;17.37;;
6019;SDS011;3038;51.122;6.840;2023-08-20T06:09:01;18.87;;;16.53;;
6019;SDS011;3038;51.122;6.840;2023-08-20T06:11:27;18.00;;;16.20;;
6019;SDS011;3038;51.122;6.840;2023-08-20T06:13:52;19.73;;;17.70;;
6019;SDS011;3038;51.122;6.840;2023-08-20T06:16:20;18.67;;;16.33;;
6019;SDS011;3038;51.122;6.840;2023-08-20T06:18:45;18.63;;;16.17;;
6019;SDS011;3038;51.122;6.840;2023-08-20T06:21:11;21.63;;;16.37;;
6019;SDS011;3038;51.122;6.840;2023-08-20T06:23:36;17.93;;;16.27;;
6019;SDS011;3038;51.122;6.840;2023-08-20T06:26:01;19.80;;;17.80;;
6019;SDS011;3038;51.122;6.840;2023-08-20T06:28:27;21.20;;;18.20;;
6019;SDS011;3038;51.122;6.840;2023-08-20T06:30:53;18.47;;;16.57;;
6019;SDS011;3038;51.122;6.840;2023-08-20T06:33:18;20.07;;;17.97;;
6019;SDS011;3038;51.122;6.840;2023-08-20T06:35:43;19.23;;;17.47;;
6019;SDS011;3038;51.122;6.840;2023-08-20T06:38:09;20.43;;;16.93;;
6019;SDS011;3038;51.122;6.840;2023-08-20T06:40:34;18.43;;;16.53;;
6019;SDS011;3038;51.122;6.840;2023-08-20T06:42:59;19.83;;;16.40;;
6019;SDS011;3038;51.122;6.840;2023-08-20T06:45:25;18.03;;;15.03;;
6019;SDS011;3038;51.122;6.840;2023-08-20T06:47:50;17.83;;;15.83;;
6019;SDS011;3038;51.122;6.840;2023-08-20T06:50:16;18.30;;;16.47;;
6019;SDS011;3038;51.122;6.840;2023-08-20T06:52:42;18.33;;;16.47;;
6019;SDS011;3038;51.122;6.840;2023-08-20T06:55:08;22.77;;;18.47;;
6019;SDS011;3038;51.122;6.840;2023-08-20T06:57:35;20.33;;;18.37;;
6019;SDS011;3038;51.122;6.840;2023-08-20T07:00:01;19.20;;;17.20;;
6019;SDS011;3038;51.122;6.840;2023-08-20T07:02:26;21.43;;;19.43;;
6019;SDS011;3038;51.122;6.840;2023-08-20T07:04:51;21.30;;;19.07;;
6019;SDS011;3038;51.122;6.840;2023-08-20T07:07:17;20.60;;;18.50;;
6019;SDS011;3038;51.122;6.840;2023-08-20T07:09:42;21.10;;;19.13;;
6019;SDS011;3038;51.122;6.840;2023-08-20T07:12:08;19.67;;;17.90;;
6019;SDS011;3038;51.122;6.840;2023-08-20T07:14:33;20.13;;;18.03;;
6019;SDS011;3038;51.122;6.840;2023-08-20T07:16:59;21.73;;;19.90;;
6019;SDS011;3038;51.122;6.840;2023-08-20T07:19:25;22.03;;;20.03;;
6019;SDS011;3038;51.122;6.840;2023-08-20T07:21:51;23.70;;;21.30;;
6019;SDS011;3038;51.122;6.840;2023-08-20T07:24:16;26.57;;;22.43;;
6019;SDS011;3038;51.122;6.840;2023-08-20T07:26:41;22.60;;;19.80;;
6019;SDS011;3038;51.122;6.840;2023-08-20T07:29:07;22.93;;;20.60;;
6019;SDS011;3038;51.122;6.840;2023-08-20T07:31:34;22.67;;;20.57;;
6019;SDS011;3038;51.122;6.840;2023-08-20T07:34:00;23.33;;;20.87;;
6019;SDS011;3038;51.122;6.840;2023-08-20T07:36:28;22.17;;;19.80;;
6019;SDS011;3038;51.122;6.840;2023-08-20T07:38:55;23.80;;;21.00;;
6019;SDS011;3038;51.122;6.840;2023-08-20T07:41:21;21.67;;;19.37;;
6019;SDS011;3038;51.122;6.840;2023-08-20T07:43:47;26.27;;;20.10;;
6019;SDS011;3038;51.122;6.840;2023-08-20T07:46:13;23.17;;;20.93;;
6019;SDS011;3038;51.122;6.840;2023-08-20T07:48:40;22.23;;;20.30;;
6019;SDS011;3038;51.122;6.840;2023-08-20T07:51:05;24.77;;;22.07;;
6019;SDS011;3038;51.122;6.840;2023-08-20T07:53:31;21.33;;;19.23;;
6019;SDS011;3038;51.122;6.840;2023-08-20T07:56:00;24.27;;;21.80;;
6019;SDS011;3038;51.122;6.840;2023-08-20T07:58:26;22.80;;;20.60;;
6019;SDS011;3038;51.122;6.840;2023-08-20T08:00:51;23.70;;;21.50;;
6019;SDS011;3038;51.122;6.840;2023-08-20T08:03:17;22.30;;;20.30;;
6019;SDS011;3038;51.122;6.840;2023-08-20T08:05:49;54.23;;;29.73;;
6019;SDS011;3038;51.122;6.840;2023-08-20T08:08:17;22.50;;;20.20;;
6019;SDS011;3038;51.122;6.840;2023-08-20T08:10:46;22.63;;;20.27;;
6019;SDS011;3038;51.122;6.840;2023-08-20T08:13:22;21.60;;;19.50;;
6019;SDS011;3038;51.122;6.840;2023-08-20T08:15:48;22.67;;;20.17;;
6019;SDS011;3038;51.122;6.840;2023-08-20T08:18:14;22.00;;;20.00;;
6019;SDS011;3038;51.122;6.840;2023-08-20T08:20:40;23.13;;;19.63;;
6019;SDS011;3038;51.122;6.840;2023-08-20T08:23:08;22.77;;;20.50;;
6019;SDS011;3038;51.122;6.840;2023-08-20T08:25:35;22.93;;;20.53;;
6019;SDS011;3038;51.122;6.840;2023-08-20T08:28:02;21.17;;;19.20;;
6019;SDS011;3038;51.122;6.840;2023-08-20T08:30:28;20.60;;;18.60;;
6019;SDS011;3038;51.122;6.840;2023-08-20T08:32:54;21.07;;;19.13;;
6019;SDS011;3038;51.122;6.840;2023-08-20T08:35:20;23.73;;;21.43;;
6019;SDS011;3038;51.122;6.840;2023-08-20T08:37:45;25.50;;;20.13;;
6019;SDS011;3038;51.122;6.840;2023-08-20T08:40:11;18.70;;;17.10;;
6019;SDS011;3038;51.122;6.840;2023-08-20T08:42:36;22.23;;;20.27;;
6019;SDS011;3038;51.122;6.840;2023-08-20T08:45:02;21.53;;;19.53;;
6019;SDS011;3038;51.122;6.840;2023-08-20T08:47:29;20.00;;;18.17;;
6019;SDS011;3038;51.122;6.840;2023-08-20T08:49:55;21.20;;;19.07;;
6019;SDS011;3038;51.122;6.840;2023-08-20T08:52:25;18.83;;;17.03;;
6019;SDS011;3038;51.122;6.840;2023-08-20T08:54:51;19.13;;;17.40;;
6019;SDS011;3038;51.122;6.840;2023-08-20T08:57:18;19.97;;;18.07;;
6019;SDS011;3038;51.122;6.840;2023-08-20T08:59:43;17.63;;;16.00;;
6019;SDS011;3038;51.122;6.840;2023-08-20T09:02:09;17.10;;;15.70;;
6019;SDS011;3038;51.122;6.840;2023-08-20T09:04:39;17.27;;;15.77;;
6019;SDS011;3038;51.122;6.840;2023-08-20T09:07:11;17.10;;;15.70;;
6019;SDS011;3038;51.122;6.840;2023-08-20T09:09:44;15.63;;;14.30;;
6019;SDS011;3038;51.122;6.840;2023-08-20T09:12:14;17.07;;;15.77;;
6019;SDS011;3038;51.122;6.840;2023-08-20T09:14:43;14.90;;;13.67;;
6019;SDS011;3038;51.122;6.840;2023-08-20T09:17:11;15.90;;;14.63;;
6019;SDS011;3038;51.122;6.840;2023-08-20T09:19:36;14.17;;;12.97;;
6019;SDS011;3038;51.122;6.840;2023-08-20T09:22:05;16.37;;;14.77;;
6019;SDS011;3038;51.122;6.840;2023-08-20T09:24:46;13.93;;;12.93;;
6019;SDS011;3038;51.122;6.840;2023-08-20T09:27:13;14.17;;;12.67;;
6019;SDS011;3038;51.122;6.840;2023-08-20T09:32:13;12.83;;;11.83;;
6019;SDS011;3038;51.122;6.840;2023-08-20T09:34:42;15.77;;;14.37;;
6019;SDS011;3038;51.122;6.840;2023-08-20T09:37:18;14.87;;;13.73;;
6019;SDS011;3038;51.122;6.840;2023-08-20T09:39:46;14.23;;;13.10;;
6019;SDS011;3038;51.122;6.840;2023-08-20T09:42:15;12.10;;;11.00;;
6019;SDS011;3038;51.122;6.840;2023-08-20T09:44:42;15.90;;;14.67;;
6019;SDS011;3038;51.122;6.840;2023-08-20T09:47:09;14.87;;;13.50;;
6019;SDS011;3038;51.122;6.840;2023-08-20T09:49:42;14.27;;;13.23;;
6019;SDS011;3038;51.122;6.840;2023-08-20T09:52:10;14.10;;;13.00;;
6019;SDS011;3038;51.122;6.840;2023-08-20T10:00:03;12.10;;;11.20;;
6019;SDS011;3038;51.122;6.840;2023-08-20T10:02:37;12.83;;;11.83;;
6019;SDS011;3038;51.122;6.840;2023-08-20T10:05:05;14.60;;;13.50;;
6019;SDS011;3038;51.122;6.840;2023-08-20T10:07:33;13.03;;;12.10;;
6019;SDS011;3038;51.122;6.840;2023-08-20T10:10:06;12.00;;;11.10;;
6019;SDS011;3038;51.122;6.840;2023-08-20T10:12:33;11.50;;;10.60;;
6019;SDS011;3038;51.122;6.840;2023-08-20T10:15:02;14.40;;;12.70;;
6019;SDS011;3038;51.122;6.840;2023-08-20T10:17:29;11.77;;;10.73;;
6019;SDS011;3038;51.122;6.840;2023-08-20T10:19:57;11.17;;;10.33;;
6019;SDS011;3038;51.122;6.840;2023-08-20T10:22:28;13.77;;;12.47;;
6019;SDS011;3038;51.122;6.840;2023-08-20T10:25:24;14.30;;;13.10;;
6019;SDS011;3038;51.122;6.840;2023-08-20T10:27:50;14.50;;;13.40;;
6019;SDS011;3038;51.122;6.840;2023-08-20T10:30:19;14.67;;;13.67;;
6019;SDS011;3038;51.122;6.840;2023-08-20T10:32:54;13.10;;;12.10;;
6019;SDS011;3038;51.122;6.840;2023-08-20T10:38:06;14.60;;;13.40;;
6019;SDS011;3038;51.122;6.840;2023-08-20T10:43:25;13.37;;;12.27;;
6019;SDS011;3038;51.122;6.840;2023-08-20T10:49:01;13.20;;;12.00;;
6019;SDS011;3038;51.122;6.840;2023-08-20T10:51:28;12.00;;;11.00;;
6019;SDS011;3038;51.122;6.840;2023-08-20T10:54:14;14.27;;;12.93;;
6019;SDS011;3038;51.122;6.840;2023-08-20T10:56:40;14.37;;;12.97;;
6019;SDS011;3038;51.122;6.840;2023-08-20T11:01:39;13.07;;;12.07;;
6019;SDS011;3038;51.122;6.840;2023-08-20T11:04:04;14.83;;;13.20;;
6019;SDS011;3038;51.122;6.840;2023-08-20T11:06:32;13.60;;;12.50;;
6019;SDS011;3038;51.122;6.840;2023-08-20T11:08:58;13.30;;;12.13;;
6019;SDS011;3038;51.122;6.840;2023-08-20T11:11:24;13.13;;;12.23;;
6019;SDS011;3038;51.122;6.840;2023-08-20T11:13:50;12.40;;;11.53;;
6019;SDS011;3038;51.122;6.840;2023-08-20T11:16:15;11.87;;;11.07;;
6019;SDS011;3038;51.122;6.840;2023-08-20T11:18:41;12.90;;;11.70;;
6019;SDS011;3038;51.122;6.840;2023-08-20T11:21:07;12.27;;;11.37;;
6019;SDS011;3038;51.122;6.840;2023-08-20T11:23:32;13.73;;;12.70;;
6019;SDS011;3038;51.122;6.840;2023-08-20T11:25:58;13.73;;;12.87;;
6019;SDS011;3038;51.122;6.840;2023-08-20T11:28:25;13.67;;;12.47;;
6019;SDS011;3038;51.122;6.840;2023-08-20T11:30:51;12.60;;;11.70;;
6019;SDS011;3038;51.122;6.840;2023-08-20T11:33:22;11.63;;;10.80;;
6019;SDS011;3038;51.122;6.840;2023-08-20T11:35:49;13.03;;;11.93;;
6019;SDS011;3038;51.122;6.840;2023-08-20T11:38:15;13.20;;;12.20;;
6019;SDS011;3038;51.122;6.840;2023-08-20T11:40:40;13.10;;;12.00;;
6019;SDS011;3038;51.122;6.840;2023-08-20T11:43:05;12.80;;;11.80;;
6019;SDS011;3038;51.122;6.840;2023-08-20T11:45:31;12.03;;;11.23;;
6019;SDS011;3038;51.122;6.840;2023-08-20T11:47:59;11.70;;;10.90;;
6019;SDS011;3038;51.122;6.840;2023-08-20T11:50:25;10.90;;;10.00;;
6019;SDS011;3038;51.122;6.840;2023-08-20T11:52:52;11.80;;;10.90;;
6019;SDS011;3038;51.122;6.840;2023-08-20T11:55:23;11.80;;;10.83;;
6019;SDS011;3038;51.122;6.840;2023-08-20T11:57:52;11.60;;;10.80;;
6019;SDS011;3038;51.122;6.840;2023-08-20T12:00:26;11.43;;;10.73;;
6019;SDS011;3038;51.122;6.840;2023-08-20T12:02:54;10.63;;;9.93;;
6019;SDS011;3038;51.122;6.840;2023-08-20T12:05:20;12.07;;;11.35;;
6019;SDS011;3038;51.122;6.840;2023-08-20T12:07:59;11.47;;;10.77;;
6019;SDS011;3038;51.122;6.840;2023-08-20T12:10:29;11.87;;;10.97;;
6019;SDS011;3038;51.122;6.840;2023-08-20T12:12:56;12.53;;;11.80;;
6019;SDS011;3038;51.122;6.840;2023-08-20T12:15:23;12.00;;;11.20;;
6019;SDS011;3038;51.122;6.840;2023-08-20T12:17:55;12.43;;;11.63;;
6019;SDS011;3038;51.122;6.840;2023-08-20T12:20:28;12.40;;;11.40;;
6019;SDS011;3038;51.122;6.840;2023-08-20T12:22:58;11.70;;;10.80;;
6019;SDS011;3038;51.122;6.840;2023-08-20T12:25:29;10.95;;;10.25;;
6019;SDS011;3038;51.122;6.840;2023-08-20T12:27:56;11.60;;;10.80;;
6019;SDS011;3038;51.122;6.840;2023-08-20T12:30:24;12.77;;;11.70;;
6019;SDS011;3038;51.122;6.840;2023-08-20T12:32:50;11.80;;;11.00;;
6019;SDS011;3038;51.122;6.840;2023-08-20T12:35:15;13.63;;;12.63;;
6019;SDS011;3038;51.122;6.840;2023-08-20T12:37:41;11.57;;;10.77;;
6019;SDS011;3038;51.122;6.840;2023-08-20T12:40:06;12.63;;;11.87;;
6019;SDS011;3038;51.122;6.840;2023-08-20T12:42:37;13.43;;;12.53;;
6019;SDS011;3038;51.122;6.840;2023-08-20T12:45:04;11.50;;;10.80;;
6019;SDS011;3038;51.122;6.840;2023-08-20T12:47:34;12.43;;;11.52;;
6019;SDS011;3038;51.122;6.840;2023-08-20T12:50:02;13.50;;;12.55;;
6019;SDS011;3038;51.122;6.840;2023-08-20T12:52:29;11.70;;;10.88;;
6019;SDS011;3038;51.122;6.840;2023-08-20T12:54:54;11.70;;;11.00;;
6019;SDS011;3038;51.122;6.840;2023-08-20T12:57:20;13.10;;;12.30;;
6019;SDS011;3038;51.122;6.840;2023-08-20T12:59:45;12.03;;;11.33;;
6019;SDS011;3038;51.122;6.840;2023-08-20T13:02:13;12.77;;;11.87;;
6019;SDS011;3038;51.122;6.840;2023-08-20T13:04:39;13.70;;;12.77;;
6019;SDS011;3038;51.122;6.840;2023-08-20T13:07:05;13.40;;;12.40;;
6019;SDS011;3038;51.122;6.840;2023-08-20T13:09:31;11.95;;;11.23;;
6019;SDS011;3038;51.122;6.840;2023-08-20T13:11:57;11.20;;;10.52;;
6019;SDS011;3038;51.122;6.840;2023-08-20T13:14:25;12.00;;;11.10;;
6019;SDS011;3038;51.122;6.840;2023-08-20T13:16:53;11.38;;;10.40;;
6019;SDS011;3038;51.122;6.840;2023-08-20T13:19:19;12.80;;;11.93;;
6019;SDS011;3038;51.122;6.840;2023-08-20T13:21:44;12.60;;;11.90;;
6019;SDS011;3038;51.122;6.840;2023-08-20T13:24:09;13.33;;;12.23;;
6019;SDS011;3038;51.122;6.840;2023-08-20T13:26:37;13.37;;;12.33;;
6019;SDS011;3038;51.122;6.840;2023-08-20T13:29:02;14.10;;;13.00;;
6019;SDS011;3038;51.122;6.840;2023-08-20T13:31:30;12.53;;;11.63;;
6019;SDS011;3038;51.122;6.840;2023-08-20T13:33:58;11.70;;;11.00;;
6019;SDS011;3038;51.122;6.840;2023-08-20T13:36:26;11.82;;;11.13;;
6019;SDS011;3038;51.122;6.840;2023-08-20T13:38:51;12.00;;;11.17;;
6019;SDS011;3038;51.122;6.840;2023-08-20T13:41:17;11.80;;;11.10;;
6019;SDS011;3038;51.122;6.840;2023-08-20T13:43:42;12.03;;;11.23;;
6019;SDS011;3038;51.122;6.840;2023-08-20T13:46:07;12.40;;;11.60;;
6019;SDS011;3038;51.122;6.840;2023-08-20T13:48:33;11.75;;;10.95;;
6019;SDS011;3038;51.122;6.840;2023-08-20T13:50:58;12.38;;;11.57;;
6019;SDS011;3038;51.122;6.840;2023-08-20T13:53:24;12.80;;;11.90;;
6019;SDS011;3038;51.122;6.840;2023-08-20T13:55:49;12.20;;;11.30;;
6019;SDS011;3038;51.122;6.840;2023-08-20T13:58:15;12.00;;;11.30;;
6019;SDS011;3038;51.122;6.840;2023-08-20T14:00:41;12.03;;;11.23;;
6019;SDS011;3038;51.122;6.840;2023-08-20T14:03:07;12.13;;;11.30;;
6019;SDS011;3038;51.122;6.840;2023-08-20T14:05:33;12.70;;;11.80;;
6019;SDS011;3038;51.122;6.840;2023-08-20T14:07:58;12.70;;;11.70;;
6019;SDS011;3038;51.122;6.840;2023-08-20T14:10:23;11.47;;;10.77;;
6019;SDS011;3038;51.122;6.840;2023-08-20T14:12:49;12.07;;;11.30;;
6019;SDS011;3038;51.122;6.840;2023-08-20T14:15:14;12.40;;;11.60;;
6019;SDS011;3038;51.122;6.840;2023-08-20T14:17:40;11.77;;;11.00;;
6019;SDS011;3038;51.122;6.840;2023-08-20T14:20:05;12.20;;;11.40;;
6019;SDS011;3038;51.122;6.840;2023-08-20T14:22:32;12.07;;;11.30;;
6019;SDS011;3038;51.122;6.840;2023-08-20T14:24:58;11.90;;;11.20;;
6019;SDS011;3038;51.122;6.840;2023-08-20T14:27:23;12.07;;;11.37;;
6019;SDS011;3038;51.122;6.840;2023-08-20T14:29:49;12.83;;;11.83;;
6019;SDS011;3038;51.122;6.840;2023-08-20T14:32:14;11.90;;;11.10;;
6019;SDS011;3038;51.122;6.840;2023-08-20T14:34:39;12.50;;;11.70;;
6019;SDS011;3038;51.122;6.840;2023-08-20T14:37:05;12.27;;;11.00;;
6019;SDS011;3038;51.122;6.840;2023-08-20T14:39:33;11.90;;;10.77;;
6019;SDS011;3038;51.122;6.840;2023-08-20T14:41:58;11.20;;;10.30;;
6019;SDS011;3038;51.122;6.840;2023-08-20T14:44:27;11.43;;;10.53;;
6019;SDS011;3038;51.122;6.840;2023-08-20T14:46:52;11.63;;;10.83;;
6019;SDS011;3038;51.122;6.840;2023-08-20T14:49:24;12.00;;;11.10;;
6019;SDS011;3038;51.122;6.840;2023-08-20T14:51:50;12.17;;;11.20;;
6019;SDS011;3038;51.122;6.840;2023-08-20T14:54:15;11.23;;;10.43;;
6019;SDS011;3038;51.122;6.840;2023-08-20T14:56:43;11.47;;;10.67;;
6019;SDS011;3038;51.122;6.840;2023-08-20T14:59:09;12.50;;;11.70;;
6019;SDS011;3038;51.122;6.840;2023-08-20T15:01:35;12.00;;;11.00;;
6019;SDS011;3038;51.122;6.840;2023-08-20T15:04:02;12.60;;;10.50;;
6019;SDS011;3038;51.122;6.840;2023-08-20T15:06:28;11.80;;;10.87;;
6019;SDS011;3038;51.122;6.840;2023-08-20T15:08:53;11.70;;;10.80;;